Time;durP1;ratioP1;P1;durP2;ratioP2;P2;SDS_P1;SDS_P2;PMS_P1;PMS_P2;Temp;Humidity;BMP_temperature;BMP_pressure;BME280_temperature;BME280_humidity;BME280_pressure;Samples;Min_cycle;Max_cycle;Signal;HPM_P1;HPM_P2
2022/08/23 00:01:49;;;;;;;;;;;;;;;19.77;100.00;98990.09;4954803;29;907;-66
2022/08/23 00:04:20;;;;;;;;;;;;;;;19.79;100.00;98995.22;4954720;29;824;-66
2022/08/23 00:06:47;;;;;;;;;;;;;;;19.81;100.00;98991.94;4954447;29;1980;-66
2022/08/23 00:09:13;;;;;;;;;;;;;;;19.87;100.00;98998.41;4954999;29;796;-66
2022/08/23 00:11:41;;;;;;;;;;;;;;;19.83;100.00;99003.44;4954643;29;800;-66
2022/08/23 00:14:28;;;;;;;;;;;;;;;19.76;100.00;99002.56;4954666;29;803;-66
2022/08/23 00:16:56;;;;;;;;;;;;;;;19.76;100.00;98994.16;4954309;29;1167;-66
2022/08/23 00:19:23;;;;;;;;;;;;;;;19.81;100.00;98994.72;4954496;29;852;-66
2022/08/23 00:21:51;;;;;;;;;;;;;;;19.88;100.00;98997.91;4954449;29;870;-66
2022/08/23 00:24:18;;;;;;;;;;;;;;;19.89;100.00;98995.88;4954433;29;851;-66
2022/08/23 00:26:53;;;;;;;;;;;;;;;19.84;100.00;98991.72;4954222;29;1973;-66
2022/08/23 00:29:20;;;;;;;;;;;;;;;19.79;100.00;98993.16;4954312;29;824;-66
2022/08/23 00:31:47;;;;;;;;;;;;;;;19.77;100.00;98997.72;4954224;29;887;-66
2022/08/23 00:34:14;;;;;;;;;;;;;;;19.77;100.00;99004.09;4954405;29;906;-66
2022/08/23 00:36:41;;;;;;;;;;;;;;;19.66;100.00;99001.09;4954171;29;903;-66
2022/08/23 00:39:07;;;;;;;;;;;;;;;19.55;100.00;98992.50;4954201;29;815;-66
2022/08/23 00:41:34;;;;;;;;;;;;;;;19.47;100.00;98986.50;4953802;28;812;-66
2022/08/23 00:49:37;;;;;;;;;;;;;;;19.32;100.00;98982.94;4953966;29;619;-66
2022/08/23 00:52:13;;;;;;;;;;;;;;;19.34;100.00;98975.59;4953951;29;882;-66
2022/08/23 00:54:40;;;;;;;;;;;;;;;19.31;100.00;98976.56;4953928;29;807;-66
2022/08/23 00:57:09;;;;;;;;;;;;;;;19.29;100.00;98990.28;4954177;29;828;-66
2022/08/23 00:59:35;;;;;;;;;;;;;;;19.28;100.00;98987.94;4953905;29;810;-66
2022/08/23 01:02:02;;;;;;;;;;;;;;;19.35;100.00;98982.75;4954195;29;943;-65
2022/08/23 01:04:32;;;;;;;;;;;;;;;19.31;100.00;98992.56;4953794;29;835;-65
2022/08/23 01:07:04;;;;;;;;;;;;;;;19.22;100.00;98990.66;4953563;29;1953;-66
2022/08/23 01:09:31;;;;;;;;;;;;;;;19.13;100.00;98993.53;4953979;29;787;-66
2022/08/23 01:12:08;;;;;;;;;;;;;;;19.05;100.00;98981.94;4953693;29;835;-66
2022/08/23 01:14:40;;;;;;;;;;;;;;;18.98;100.00;98991.47;4953747;29;886;-66
2022/08/23 01:17:18;;;;;;;;;;;;;;;19.05;100.00;98993.13;4953495;29;871;-66
2022/08/23 01:19:52;;;;;;;;;;;;;;;19.17;100.00;98983.69;4953587;29;823;-66
2022/08/23 01:22:19;;;;;;;;;;;;;;;19.23;100.00;98991.44;4953506;29;894;-66
2022/08/23 01:24:46;;;;;;;;;;;;;;;19.25;100.00;98983.31;4953542;29;1907;-66
2022/08/23 01:27:13;;;;;;;;;;;;;;;19.20;100.00;98981.19;4953820;29;991;-66
2022/08/23 01:29:40;;;;;;;;;;;;;;;19.13;100.00;98983.09;4953514;29;851;-66
2022/08/23 01:32:07;;;;;;;;;;;;;;;19.09;100.00;98987.34;4953591;29;824;-66
2022/08/23 01:34:35;;;;;;;;;;;;;;;19.26;100.00;98988.44;4953587;29;903;-66
2022/08/23 01:37:03;;;;;;;;;;;;;;;19.62;100.00;98991.34;4953500;29;824;-65
2022/08/23 01:39:30;;;;;;;;;;;;;;;19.85;100.00;98981.28;4953369;29;1158;-66
2022/08/23 01:41:56;;;;;;;;;;;;;;;19.95;100.00;98982.69;4953460;29;836;-66
2022/08/23 01:44:23;;;;;;;;;;;;;;;19.97;100.00;98980.19;4953393;29;890;-65
2022/08/23 01:46:50;;;;;;;;;;;;;;;19.99;100.00;98977.66;4953238;29;1890;-66
2022/08/23 01:49:16;;;;;;;;;;;;;;;19.98;100.00;98984.53;4953319;29;793;-66
2022/08/23 01:51:42;;;;;;;;;;;;;;;20.03;100.00;98983.06;4953343;29;985;-65
2022/08/23 01:54:09;;;;;;;;;;;;;;;20.04;100.00;98990.25;4955131;28;855;-66
2022/08/23 01:56:37;;;;;;;;;;;;;;;19.91;100.00;98996.94;4957235;29;843;-66
2022/08/23 01:59:04;;;;;;;;;;;;;;;19.72;100.00;98996.38;4957154;29;800;-65
2022/08/23 02:01:30;;;;;;;;;;;;;;;19.50;100.00;98990.38;4957245;29;910;-65
2022/08/23 02:03:56;;;;;;;;;;;;;;;19.31;100.00;98992.56;4956968;29;855;-66
2022/08/23 02:06:23;;;;;;;;;;;;;;;19.17;100.00;98994.13;4956567;29;1918;-66
2022/08/23 02:09:01;;;;;;;;;;;;;;;19.07;100.00;98995.47;4956917;29;839;-66
2022/08/23 02:11:33;;;;;;;;;;;;;;;18.97;100.00;99006.75;4956853;29;1054;-65
2022/08/23 02:14:00;;;;;;;;;;;;;;;18.91;100.00;99005.88;4956930;29;808;-65
2022/08/23 02:16:30;;;;;;;;;;;;;;;18.85;100.00;99015.41;4956627;29;850;-66
2022/08/23 02:18:57;;;;;;;;;;;;;;;18.84;100.00;99017.44;4956880;29;574;-65
2022/08/23 02:21:25;;;;;;;;;;;;;;;18.84;100.00;99019.44;4956873;29;887;-66
2022/08/23 02:23:51;;;;;;;;;;;;;;;18.82;100.00;99025.53;4956621;29;835;-65
2022/08/23 02:26:18;;;;;;;;;;;;;;;18.85;100.00;99021.00;4956653;29;1918;-66
2022/08/23 02:28:45;;;;;;;;;;;;;;;18.79;100.00;99026.47;4956918;29;835;-65
2022/08/23 02:31:12;;;;;;;;;;;;;;;18.67;100.00;99030.25;4956625;29;941;-65
2022/08/23 02:33:38;;;;;;;;;;;;;;;18.59;100.00;99029.09;4956755;29;883;-65
2022/08/23 02:36:05;;;;;;;;;;;;;;;18.63;100.00;99033.25;4956625;29;832;-66
2022/08/23 02:38:32;;;;;;;;;;;;;;;18.69;100.00;99028.56;4956948;29;839;-66
2022/08/23 02:40:58;;;;;;;;;;;;;;;18.72;100.00;99032.41;4956945;29;768;-66
2022/08/23 02:43:24;;;;;;;;;;;;;;;18.72;100.00;99032.41;4956663;29;832;-65
2022/08/23 02:45:51;;;;;;;;;;;;;;;18.78;100.00;99033.34;4956020;29;1947;-65
2022/08/23 02:48:18;;;;;;;;;;;;;;;18.87;100.00;99044.47;4956498;29;862;-66
2022/08/23 02:50:45;;;;;;;;;;;;;;;19.08;100.00;99045.41;4956178;29;853;-66
2022/08/23 02:53:12;;;;;;;;;;;;;;;19.20;100.00;99051.97;4956079;29;859;-66
2022/08/23 02:55:38;;;;;;;;;;;;;;;19.16;100.00;99049.38;4956120;29;866;-66
2022/08/23 02:58:04;;;;;;;;;;;;;;;19.17;100.00;99055.75;4955939;29;906;-66
2022/08/23 03:00:31;;;;;;;;;;;;;;;19.13;100.00;99053.13;4956041;29;895;-66
2022/08/23 03:02:57;;;;;;;;;;;;;;;19.14;100.00;99056.72;4955908;29;803;-66
2022/08/23 03:05:24;;;;;;;;;;;;;;;19.13;100.00;99055.94;4954845;28;1882;-66
2022/08/23 03:07:51;;;;;;;;;;;;;;;19.36;100.00;99054.34;4955611;29;1248;-65
2022/08/23 03:10:17;;;;;;;;;;;;;;;19.65;100.00;99058.44;4955765;29;894;-66
2022/08/23 03:12:44;;;;;;;;;;;;;;;19.86;100.00;99058.53;4955798;29;855;-66
2022/08/23 03:15:11;;;;;;;;;;;;;;;19.97;100.00;99056.69;4955673;29;851;-66
2022/08/23 03:17:37;;;;;;;;;;;;;;;20.07;100.00;99057.34;4955625;29;784;-65
2022/08/23 03:20:05;;;;;;;;;;;;;;;20.14;100.00;99059.78;4955817;29;879;-65
2022/08/23 03:22:32;;;;;;;;;;;;;;;20.16;100.00;99057.25;4955566;29;847;-66
2022/08/23 03:24:58;;;;;;;;;;;;;;;20.22;100.00;99053.75;4955439;29;1922;-66
2022/08/23 03:27:25;;;;;;;;;;;;;;;20.24;100.00;99054.03;4955477;29;859;-66
2022/08/23 03:29:52;;;;;;;;;;;;;;;20.28;100.00;99052.56;4938139;29;1328;-65
2022/08/23 03:32:19;;;;;;;;;;;;;;;20.33;100.00;99059.50;4955404;29;934;-66
2022/08/23 03:34:45;;;;;;;;;;;;;;;20.36;100.00;99062.13;4955394;29;812;-66
2022/08/23 03:37:12;;;;;;;;;;;;;;;20.40;100.00;99064.75;4955374;29;820;-66
2022/08/23 03:39:38;;;;;;;;;;;;;;;20.46;100.00;99073.22;4955557;29;856;-66
2022/08/23 03:42:05;;;;;;;;;;;;;;;20.49;100.00;99075.84;4955207;29;879;-66
2022/08/23 03:44:33;;;;;;;;;;;;;;;20.50;100.00;99068.94;4955170;29;854;-66
2022/08/23 03:47:01;;;;;;;;;;;;;;;20.51;100.00;99066.94;4955257;29;1870;-66
2022/08/23 03:49:27;;;;;;;;;;;;;;;20.53;100.00;99070.03;4955043;29;870;-66
2022/08/23 03:51:53;;;;;;;;;;;;;;;20.56;100.00;99069.81;4955394;29;890;-66
2022/08/23 03:54:20;;;;;;;;;;;;;;;20.60;100.00;99066.81;4955020;29;815;-66
2022/08/23 03:56:51;;;;;;;;;;;;;;;20.64;100.00;99069.44;4954919;29;880;-65
2022/08/23 03:59:20;;;;;;;;;;;;;;;20.72;100.00;99076.19;4954882;29;804;-66
2022/08/23 04:01:46;;;;;;;;;;;;;;;20.79;100.00;99072.94;4937499;29;1266;-66
2022/08/23 04:04:13;;;;;;;;;;;;;;;20.89;100.00;99079.19;4954749;29;867;-66
2022/08/23 04:06:40;;;;;;;;;;;;;;;20.98;100.00;99088.25;4954545;29;1891;-66
2022/08/23 04:09:14;;;;;;;;;;;;;;;21.10;100.00;99086.38;4954736;29;816;-65
2022/08/23 04:11:41;;;;;;;;;;;;;;;21.23;100.00;99079.59;4954633;29;808;-65
2022/08/23 04:14:08;;;;;;;;;;;;;;;21.31;100.00;99078.66;4954714;29;795;-65
2022/08/23 04:16:39;;;;;;;;;;;;;;;21.37;100.00;99075.94;4954469;28;906;-64
2022/08/23 04:19:06;;;;;;;;;;;;;;;21.43;100.00;99087.28;4954846;29;973;-65
2022/08/23 04:21:34;;;;;;;;;;;;;;;21.48;100.00;99083.75;4937257;29;1207;-66
2022/08/23 04:24:01;;;;;;;;;;;;;;;21.52;100.00;99089.91;4954457;29;929;-65
2022/08/23 04:26:28;;;;;;;;;;;;;;;21.56;100.00;99090.47;4954331;29;1907;-65
2022/08/23 04:28:55;;;;;;;;;;;;;;;21.61;100.00;99087.72;4954372;29;867;-65
2022/08/23 04:31:25;;;;;;;;;;;;;;;21.69;100.00;99096.47;4954343;29;784;-65
2022/08/23 04:33:52;;;;;;;;;;;;;;;21.75;100.00;99097.31;4954287;29;870;-64
2022/08/23 04:48:29;;;;;;;;;;;;;;;22.48;100.00;99105.59;4954416;29;594;-66
2022/08/23 04:50:56;;;;;;;;;;;;;;;22.60;100.00;99110.03;4953984;29;882;-65
2022/08/23 04:53:22;;;;;;;;;;;;;;;22.68;100.00;99109.56;4954170;29;859;-65
2022/08/23 04:55:51;;;;;;;;;;;;;;;22.80;100.00;99116.78;4953895;29;875;-66
2022/08/23 04:58:18;;;;;;;;;;;;;;;22.96;100.00;99118.94;4953932;29;796;-66
2022/08/23 05:00:48;;;;;;;;;;;;;;;23.18;99.79;99120.34;4936649;29;951;-65
2022/08/23 05:03:15;;;;;;;;;;;;;;;23.42;98.04;99114.28;4953814;29;816;-64
2022/08/23 05:05:42;;;;;;;;;;;;;;;23.64;96.49;99108.69;4953908;29;1954;-65
2022/08/23 05:08:08;;;;;;;;;;;;;;;23.88;95.17;99107.47;4953490;29;1431;-65
2022/08/23 05:10:35;;;;;;;;;;;;;;;24.07;92.84;99121.06;4953753;29;895;-65
2022/08/23 05:13:16;;;;;;;;;;;;;;;24.24;91.14;99119.81;4953632;29;855;-64
2022/08/23 05:15:49;;;;;;;;;;;;;;;24.10;90.28;99117.25;4953762;29;839;-65
2022/08/23 05:18:38;;;;;;;;;;;;;;;23.70;90.98;99113.56;4953536;29;1239;-65
2022/08/23 05:33:16;;;;;;;;;;;;;;;23.54;93.90;99124.31;4953821;29;598;-65
2022/08/23 05:35:42;;;;;;;;;;;;;;;24.12;91.36;99117.50;4936186;29;1323;-65
2022/08/23 05:38:09;;;;;;;;;;;;;;;24.58;88.32;99133.94;4953457;29;851;-65
2022/08/23 05:40:38;;;;;;;;;;;;;;;24.85;87.36;99128.72;4953384;29;910;-65
2022/08/23 05:43:05;;;;;;;;;;;;;;;24.91;86.24;99125.88;4936105;29;1277;-65
2022/08/23 05:45:31;;;;;;;;;;;;;;;25.02;84.62;99123.03;4953309;29;1902;-64
2022/08/23 05:47:58;;;;;;;;;;;;;;;25.06;83.30;99124.28;4953387;29;803;-66
2022/08/23 05:50:24;;;;;;;;;;;;;;;25.35;83.10;99124.97;4953332;29;808;-66
2022/08/23 05:52:51;;;;;;;;;;;;;;;25.62;81.31;99125.34;4953312;29;847;-65
2022/08/23 05:55:18;;;;;;;;;;;;;;;25.84;79.90;99136.53;4953260;29;848;-66
2022/08/23 05:57:45;;;;;;;;;;;;;;;26.05;78.70;99138.97;4953293;29;843;-65
2022/08/23 06:00:14;;;;;;;;;;;;;;;26.20;77.79;99133.72;4953281;29;1045;-66
2022/08/23 06:02:41;;;;;;;;;;;;;;;26.26;76.36;99130.81;4953245;29;827;-65
2022/08/23 06:05:12;;;;;;;;;;;;;;;25.90;77.21;99141.41;4953127;29;1954;-65
2022/08/23 06:07:40;;;;;;;;;;;;;;;25.60;78.33;99140.00;4952813;29;1273;-65
2022/08/23 06:10:07;;;;;;;;;;;;;;;25.72;78.45;99134.28;4953157;29;855;-65
2022/08/23 06:12:34;;;;;;;;;;;;;;;25.97;77.68;99129.53;4953092;29;894;-66
2022/08/23 06:15:02;;;;;;;;;;;;;;;26.18;76.22;99136.31;4953137;29;883;-66
2022/08/23 06:17:29;;;;;;;;;;;;;;;26.54;75.59;99133.41;4953098;29;851;-65
2022/08/23 06:19:56;;;;;;;;;;;;;;;27.19;72.26;99128.13;4952982;29;954;-66
2022/08/23 06:22:23;;;;;;;;;;;;;;;27.67;70.33;99135.75;4953111;29;807;-65
2022/08/23 06:24:50;;;;;;;;;;;;;;;28.39;66.96;99134.41;4952911;29;1980;-66
2022/08/23 06:27:16;;;;;;;;;;;;;;;29.47;63.45;99142.47;4953026;29;832;-67
2022/08/23 06:29:44;;;;;;;;;;;;;;;30.22;60.04;99135.31;4935884;29;1288;-65
2022/08/23 06:32:11;;;;;;;;;;;;;;;30.63;58.37;99142.31;4952891;29;863;-66
2022/08/23 06:34:37;;;;;;;;;;;;;;;31.14;55.94;99138.13;4953368;29;1223;-64
2022/08/23 06:37:06;;;;;;;;;;;;;;;31.46;54.51;99134.09;4954280;29;890;-66
2022/08/23 06:39:34;;;;;;;;;;;;;;;31.74;53.06;99141.81;4935900;28;1457;-66
2022/08/23 06:42:10;;;;;;;;;;;;;;;31.94;52.39;99146.63;4955530;29;863;-65
2022/08/23 06:44:37;;;;;;;;;;;;;;;31.40;52.99;99147.75;4956931;29;866;-65
2022/08/23 06:47:05;;;;;;;;;;;;;;;31.20;53.75;99141.56;4956207;29;1879;-65
2022/08/23 06:49:32;;;;;;;;;;;;;;;30.45;55.77;99149.78;4956423;29;843;-65
2022/08/23 06:52:00;;;;;;;;;;;;;;;29.81;58.01;99150.25;4956175;29;908;-66
2022/08/23 06:54:30;;;;;;;;;;;;;;;30.20;57.15;99157.91;4956099;29;845;-66
2022/08/23 06:56:57;;;;;;;;;;;;;;;30.73;54.57;99149.06;4956074;29;918;-65
2022/08/23 06:59:25;;;;;;;;;;;;;;;30.85;54.07;99163.00;4956007;29;807;-66
2022/08/23 07:01:56;;;;;;;;;;;;;;;30.26;55.15;99160.63;4956126;29;988;-67
2022/08/23 07:04:26;;;;;;;;;;;;;;;30.27;55.97;99157.19;4955867;29;796;-67
2022/08/23 07:06:52;;;;;;;;;;;;;;;30.68;54.11;99160.59;4955561;29;1954;-67
2022/08/23 07:09:19;;;;;;;;;;;;;;;30.52;54.46;99165.44;4955790;29;835;-67
2022/08/23 07:11:46;;;;;;;;;;;;;;;30.84;53.57;99156.53;4955756;29;859;-66
2022/08/23 07:17:14;;;;;;;;;;;;;;;31.60;52.45;99160.41;4955743;29;662;-66
2022/08/23 07:19:42;;;;;;;;;;;;;;;32.78;49.07;99162.34;4955700;29;842;-65
2022/08/23 07:22:10;;;;;;;;;;;;;;;32.45;47.98;99165.00;4955643;29;812;-66
2022/08/23 07:24:36;;;;;;;;;;;;;;;31.34;50.53;99174.38;4955607;29;792;-65
2022/08/23 07:27:08;;;;;;;;;;;;;;;30.61;52.35;99173.47;4955389;29;1954;-65
2022/08/23 07:29:36;;;;;;;;;;;;;;;30.02;54.29;99175.94;4955511;29;890;-65
2022/08/23 07:32:04;;;;;;;;;;;;;;;29.89;54.50;99180.38;4955703;29;1015;-65
2022/08/23 07:34:30;;;;;;;;;;;;;;;29.87;54.51;99177.31;4955634;29;848;-65
2022/08/23 07:36:57;;;;;;;;;;;;;;;29.45;55.48;99182.88;4955351;29;871;-65
2022/08/23 07:39:25;;;;;;;;;;;;;;;29.29;56.09;99179.03;4955200;29;875;-65
2022/08/23 07:41:52;;;;;;;;;;;;;;;28.98;56.88;99177.06;4955251;29;872;-65
2022/08/23 07:44:19;;;;;;;;;;;;;;;28.91;57.50;99182.09;4955119;29;863;-66
2022/08/23 07:46:45;;;;;;;;;;;;;;;28.95;57.55;99184.59;4955127;29;1902;-65
2022/08/23 07:49:14;;;;;;;;;;;;;;;29.20;57.36;99181.56;4955093;29;875;-66
2022/08/23 07:51:41;;;;;;;;;;;;;;;29.40;57.29;99183.72;4954668;28;863;-65
2022/08/23 07:54:08;;;;;;;;;;;;;;;29.63;56.86;99184.03;4955005;29;796;-65
2022/08/23 07:56:36;;;;;;;;;;;;;;;30.05;55.99;99186.25;4954939;29;867;-65
2022/08/23 07:59:04;;;;;;;;;;;;;;;30.35;54.79;99180.09;4954898;29;816;-65
2022/08/23 08:01:30;;;;;;;;;;;;;;;30.66;54.06;99175.44;4955147;29;880;-65
2022/08/23 08:03:59;;;;;;;;;;;;;;;31.18;53.29;99167.06;4954779;29;848;-66
2022/08/23 08:06:28;;;;;;;;;;;;;;;32.53;49.86;99162.19;4954477;28;1941;-66
2022/08/23 08:08:55;;;;;;;;;;;;;;;33.23;48.04;99163.63;4937884;29;1257;-65
2022/08/23 08:11:24;;;;;;;;;;;;;;;33.39;46.92;99164.31;4955463;29;764;-66
2022/08/23 08:13:51;;;;;;;;;;;;;;;33.82;46.65;99155.94;4954877;29;851;-65
2022/08/23 08:16:25;;;;;;;;;;;;;;;34.60;43.49;99154.84;4954875;29;848;-65
2022/08/23 08:18:54;;;;;;;;;;;;;;;34.74;42.19;99161.84;4954614;29;824;-65
2022/08/23 08:21:22;;;;;;;;;;;;;;;33.79;43.58;99163.59;4954540;29;851;-66
2022/08/23 08:23:48;;;;;;;;;;;;;;;33.06;45.41;99160.59;4954477;29;828;-66
2022/08/23 08:26:15;;;;;;;;;;;;;;;32.84;45.92;99162.94;4954386;29;1907;-66
2022/08/23 08:28:42;;;;;;;;;;;;;;;32.58;46.23;99169.03;4937184;29;1483;-65
2022/08/23 08:31:09;;;;;;;;;;;;;;;32.04;47.71;99168.97;4954316;29;851;-66
2022/08/23 08:33:36;;;;;;;;;;;;;;;31.93;48.38;99176.53;4954360;29;871;-66
2022/08/23 08:36:04;;;;;;;;;;;;;;;31.83;48.95;99178.41;4954263;29;808;-65
2022/08/23 08:38:31;;;;;;;;;;;;;;;31.83;48.24;99177.63;4954113;29;886;-65
2022/08/23 08:41:07;;;;;;;;;;;;;;;31.99;48.56;99169.91;4954131;29;823;-65
2022/08/23 08:43:54;;;;;;;;;;;;;;;32.26;48.06;99171.09;4954784;29;761;-66
2022/08/23 08:46:33;;;;;;;;;;;;;;;32.51;47.12;99165.56;4924132;29;1933;-66
2022/08/23 08:49:03;;;;;;;;;;;;;;;32.37;47.91;99169.97;4954119;29;852;-65
2022/08/23 08:51:36;;;;;;;;;;;;;;;32.25;48.30;99175.28;4954032;29;875;-65
2022/08/23 08:54:07;;;;;;;;;;;;;;;32.21;48.12;99185.56;4953922;29;795;-65
2022/08/23 08:56:33;;;;;;;;;;;;;;;32.13;47.88;99182.69;4953978;29;843;-66
2022/08/23 08:59:02;;;;;;;;;;;;;;;32.15;48.56;99180.03;4954065;29;824;-65
2022/08/23 09:01:31;;;;;;;;;;;;;;;32.23;48.24;99180.81;4954135;29;896;-66
2022/08/23 09:03:59;;;;;;;;;;;;;;;32.02;48.78;99180.94;4953049;28;851;-66
2022/08/23 09:06:44;;;;;;;;;;;;;;;32.09;49.09;99182.28;4953432;28;1878;-65
2022/08/23 09:09:23;;;;;;;;;;;;;;;32.24;48.80;99176.63;4953857;29;899;-65
2022/08/23 09:11:57;;;;;;;;;;;;;;;32.32;47.87;99171.66;4953691;29;839;-65
2022/08/23 09:14:33;;;;;;;;;;;;;;;32.32;47.83;99168.81;4953984;29;859;-65
2022/08/23 09:17:26;;;;;;;;;;;;;;;32.63;47.50;99177.44;4953677;29;808;-65
2022/08/23 09:19:56;;;;;;;;;;;;;;;32.98;46.58;99177.00;4931263;29;1237;-65
2022/08/23 09:22:44;;;;;;;;;;;;;;;32.74;47.10;99177.03;4953589;29;1023;-65
2022/08/23 09:25:13;;;;;;;;;;;;;;;32.54;47.41;99170.19;4953389;29;1946;-65
2022/08/23 09:27:42;;;;;;;;;;;;;;;33.50;45.88;99169.66;4953426;29;1200;-65
2022/08/23 09:30:12;;;;;;;;;;;;;;;33.90;44.63;99171.00;4953745;29;858;-66
2022/08/23 10:01:29;;;;;;;;;;;;;;;32.34;46.03;99182.53;5839286;23;1670;-61
2022/08/23 10:04:16;;;;;;;;;;;;;;;32.37;46.65;99183.47;4915206;29;870;-61
2022/08/23 10:06:45;;;;;;;;;;;;;;;32.73;46.24;99175.53;4876742;29;1994;-61
2022/08/23 10:09:25;;;;;;;;;;;;;;;32.75;45.53;99178.56;4915056;29;891;-60
2022/08/23 10:11:52;;;;;;;;;;;;;;;32.77;45.49;99180.09;4915174;29;901;-60
2022/08/23 10:14:20;;;;;;;;;;;;;;;32.64;45.65;99176.09;4915420;29;808;-61
2022/08/23 10:16:53;;;;;;;;;;;;;;;32.35;46.60;99175.50;4918742;29;859;-61
2022/08/23 10:19:19;;;;;;;;;;;;;;;32.06;46.73;99181.34;4918690;29;839;-61
2022/08/23 10:21:57;;;;;;;;;;;;;;;31.88;46.81;99185.28;4918599;29;933;-61
2022/08/23 10:24:28;;;;;;;;;;;;;;;31.98;46.17;99179.78;4918610;29;815;-60
2022/08/23 10:30:07;;;;;;;;;;;;;;;34.90;40.13;99173.16;4918501;29;715;-60
2022/08/23 10:32:52;;;;;;;;;;;;;;;35.06;39.38;99170.88;4918363;29;886;-60
2022/08/23 10:35:26;;;;;;;;;;;;;;;34.66;39.94;99158.28;4918303;29;899;-59
2022/08/23 10:38:02;;;;;;;;;;;;;;;34.05;41.36;99162.31;4918281;29;811;-60
2022/08/23 10:40:31;;;;;;;;;;;;;;;33.59;42.51;99170.38;4918182;29;967;-60
2022/08/23 10:43:13;;;;;;;;;;;;;;;33.50;43.16;99166.78;4918583;29;883;-60
2022/08/23 10:45:42;;;;;;;;;;;;;;;34.10;42.13;99166.31;4918151;29;1887;-59
2022/08/23 10:48:11;;;;;;;;;;;;;;;34.58;41.19;99169.78;4918093;29;879;-59
2022/08/23 10:50:45;;;;;;;;;;;;;;;35.08;39.91;99173.91;4918065;29;815;-58
2022/08/23 10:53:15;;;;;;;;;;;;;;;35.22;38.93;99165.78;4918215;29;910;-58
2022/08/23 10:56:01;;;;;;;;;;;;;;;35.32;38.54;99161.63;4918412;29;866;-58
2022/08/23 10:58:33;;;;;;;;;;;;;;;36.08;38.38;99161.22;4917860;29;972;-58
2022/08/23 11:01:03;;;;;;;;;;;;;;;36.47;37.14;99152.78;4901026;29;925;-58
2022/08/23 11:03:36;;;;;;;;;;;;;;;35.63;38.27;99164.09;4952143;29;1427;-58
2022/08/23 11:06:21;;;;;;;;;;;;;;;34.68;39.18;99160.56;4956250;29;1973;-58
2022/08/23 11:08:47;;;;;;;;;;;;;;;33.92;40.01;99157.59;4955872;29;902;-58
2022/08/23 11:11:33;;;;;;;;;;;;;;;33.64;40.54;99152.22;4955774;29;843;-58
2022/08/23 11:13:59;;;;;;;;;;;;;;;34.32;40.13;99147.44;4955947;29;831;-58
2022/08/23 11:16:29;;;;;;;;;;;;;;;35.29;38.65;99145.59;4938709;29;816;-58
2022/08/23 11:18:56;;;;;;;;;;;;;;;36.34;36.61;99136.72;4955645;29;932;-58
2022/08/23 11:21:32;;;;;;;;;;;;;;;35.95;36.59;99143.03;4955648;29;906;-58
2022/08/23 11:23:58;;;;;;;;;;;;;;;36.25;35.29;99146.03;4955820;29;938;-58
2022/08/23 11:26:35;;;;;;;;;;;;;;;36.74;34.48;99149.84;4954771;28;1922;-58
2022/08/23 11:29:11;;;;;;;;;;;;;;;35.98;35.97;99141.81;4955466;29;942;-57
2022/08/23 11:31:46;;;;;;;;;;;;;;;35.54;36.43;99139.72;4955492;29;1019;-58
2022/08/23 11:34:12;;;;;;;;;;;;;;;36.25;35.62;99138.16;4955343;29;946;-58
2022/08/23 11:36:39;;;;;;;;;;;;;;;36.83;35.10;99145.47;4955357;29;875;-58
2022/08/23 11:39:08;;;;;;;;;;;;;;;37.19;34.10;99135.97;4955419;29;874;-58
2022/08/23 11:41:54;;;;;;;;;;;;;;;36.49;34.73;99129.91;4955315;29;903;-58
2022/08/23 11:44:23;;;;;;;;;;;;;;;35.69;36.22;99143.75;4955205;29;1119;-58
2022/08/23 11:46:50;;;;;;;;;;;;;;;35.19;37.24;99141.88;4938139;29;1951;-58
2022/08/23 11:49:16;;;;;;;;;;;;;;;35.63;36.93;99134.63;4955178;29;905;-58
2022/08/23 11:51:43;;;;;;;;;;;;;;;36.43;35.29;99127.34;4955235;29;835;-58
2022/08/23 11:54:16;;;;;;;;;;;;;;;36.74;34.73;99121.84;4955032;29;925;-58
2022/08/23 11:56:43;;;;;;;;;;;;;;;36.76;35.90;99127.72;4955123;29;854;-58
2022/08/23 11:59:19;;;;;;;;;;;;;;;36.31;36.06;99126.38;4937783;29;1600;-58
2022/08/23 12:01:45;;;;;;;;;;;;;;;35.41;37.76;99131.47;4955009;29;1217;-59
2022/08/23 12:04:32;;;;;;;;;;;;;;;34.86;38.83;99121.91;4954909;29;950;-60
2022/08/23 12:07:06;;;;;;;;;;;;;;;34.91;39.31;99132.38;4955034;29;1910;-59
2022/08/23 12:09:34;;;;;;;;;;;;;;;34.66;39.28;99123.84;4954725;29;845;-59
2022/08/23 12:12:01;;;;;;;;;;;;;;;34.29;40.21;99126.44;4954689;29;914;-60
2022/08/23 12:14:30;;;;;;;;;;;;;;;34.37;40.58;99134.97;4954723;29;1158;-60
2022/08/23 12:17:03;;;;;;;;;;;;;;;34.14;41.00;99123.66;4954926;29;886;-61
2022/08/23 12:19:29;;;;;;;;;;;;;;;34.05;40.99;99130.00;4954878;29;982;-60
2022/08/23 12:21:57;;;;;;;;;;;;;;;33.90;40.94;99128.00;4954580;29;878;-60
2022/08/23 12:24:27;;;;;;;;;;;;;;;33.50;41.44;99123.81;4954555;29;867;-60
2022/08/23 12:27:27;;;;;;;;;;;;;;;33.49;41.96;99130.13;4954880;29;1932;-60
2022/08/23 12:29:58;;;;;;;;;;;;;;;33.79;41.24;99114.91;4921919;29;940;-61
2022/08/23 12:32:34;;;;;;;;;;;;;;;35.26;39.05;99120.91;4954451;29;873;-60
2022/08/23 12:35:09;;;;;;;;;;;;;;;36.83;36.79;99114.56;4954391;29;902;-59
2022/08/23 12:37:57;;;;;;;;;;;;;;;37.14;35.62;99119.75;4954137;28;985;-58
2022/08/23 12:40:43;;;;;;;;;;;;;;;35.95;36.96;99125.78;4954299;29;835;-59
2022/08/23 12:43:18;;;;;;;;;;;;;;;34.61;38.66;99127.69;4954267;29;882;-59
2022/08/23 12:45:47;;;;;;;;;;;;;;;33.94;40.23;99117.66;4954304;29;1887;-60
2022/08/23 12:48:16;;;;;;;;;;;;;;;34.20;40.36;99114.84;4954026;29;914;-60
2022/08/23 12:50:44;;;;;;;;;;;;;;;35.91;37.81;99113.94;4954183;29;949;-61
2022/08/23 12:53:13;;;;;;;;;;;;;;;35.71;36.74;99115.94;4954307;29;957;-60
2022/08/23 12:55:46;;;;;;;;;;;;;;;35.01;37.62;99114.47;4954052;29;879;-60
2022/08/23 12:58:13;;;;;;;;;;;;;;;35.63;38.05;99114.50;4954251;29;851;-60
2022/08/23 13:00:58;;;;;;;;;;;;;;;36.90;37.76;99105.03;4953891;29;953;-59
2022/08/23 13:03:43;;;;;;;;;;;;;;;37.80;36.15;99082.03;4953455;29;1247;-60
2022/08/23 13:06:15;;;;;;;;;;;;;;;37.83;36.40;99100.25;4953692;29;1962;-58
2022/08/23 13:08:52;;;;;;;;;;;;;;;37.91;36.33;99098.69;4953750;29;1160;-58
2022/08/23 13:11:21;;;;;;;;;;;;;;;37.62;36.73;99110.31;4953664;29;863;-60
2022/08/23 13:13:47;;;;;;;;;;;;;;;36.38;38.37;99111.09;4954192;29;954;-59
2022/08/23 13:16:22;;;;;;;;;;;;;;;34.91;41.23;99114.38;4953683;29;820;-59
2022/08/23 13:18:49;;;;;;;;;;;;;;;33.73;42.93;99111.50;4953923;29;815;-60
2022/08/23 13:21:29;;;;;;;;;;;;;;;33.22;44.25;99112.66;4953769;29;890;-61
2022/08/23 13:24:17;;;;;;;;;;;;;;;33.38;44.61;99099.06;4953464;29;878;-61
2022/08/23 13:26:45;;;;;;;;;;;;;;;33.60;45.06;99103.91;4953532;29;1918;-61
2022/08/23 13:29:21;;;;;;;;;;;;;;;34.41;43.55;99108.75;4953565;29;843;-61
2022/08/23 13:31:54;;;;;;;;;;;;;;;35.10;41.99;99100.22;4953544;29;839;-61
2022/08/23 13:34:56;;;;;;;;;;;;;;;35.53;41.29;99106.59;4953790;29;812;-62
2022/08/23 13:37:27;;;;;;;;;;;;;;;35.63;41.46;99115.25;4894453;29;828;-60
2022/08/23 13:39:58;;;;;;;;;;;;;;;35.82;41.12;99106.03;4943250;29;1817;-60
2022/08/23 13:42:35;;;;;;;;;;;;;;;35.55;40.51;99112.50;4953607;29;927;-59
2022/08/23 13:45:11;;;;;;;;;;;;;;;34.76;41.60;99098.88;4953344;29;917;-60
2022/08/23 13:47:44;;;;;;;;;;;;;;;34.32;43.05;99107.28;4953309;29;863;-61
2022/08/23 13:50:25;;;;;;;;;;;;;;;34.29;42.02;99102.72;4955086;28;831;-61
2022/08/23 13:52:52;;;;;;;;;;;;;;;34.45;42.00;99106.22;4957133;29;866;-60
2022/08/23 13:55:21;;;;;;;;;;;;;;;34.44;41.72;99108.34;4957589;29;906;-61
2022/08/23 13:57:48;;;;;;;;;;;;;;;34.43;40.97;99114.66;4957026;29;879;-61
2022/08/23 14:00:15;;;;;;;;;;;;;;;34.85;40.20;99108.16;4939946;29;1147;-61
2022/08/23 14:02:43;;;;;;;;;;;;;;;35.54;38.69;99110.97;4956964;29;1225;-61
2022/08/23 14:05:10;;;;;;;;;;;;;;;35.67;38.67;99109.13;4956991;29;1911;-60
2022/08/23 14:07:37;;;;;;;;;;;;;;;35.70;40.29;99094.31;4957074;29;839;-60
2022/08/23 14:10:03;;;;;;;;;;;;;;;35.63;39.42;99097.25;4956976;29;894;-60
2022/08/23 14:12:35;;;;;;;;;;;;;;;35.27;39.89;99096.59;4956997;29;799;-60
2022/08/23 14:15:04;;;;;;;;;;;;;;;34.97;41.82;99107.06;4956871;29;820;-60
2022/08/23 14:17:34;;;;;;;;;;;;;;;34.52;43.67;99111.13;4957040;29;962;-61
2022/08/23 14:20:03;;;;;;;;;;;;;;;33.89;45.48;99106.44;4956798;29;838;-61